Airport View

Enter AWOS ICAO identifier for current METAR.

ex. KFNL

KSBN 040454Z 35007KT 10SM FEW029 SCT080 18/16 A3001 RMK AO2 SLP157 T01780161 402560172

4 Aug 2020 05:05

Phone: 574-251-2652

Other Area AWOS: KEKM - KPPO - KMGC - KBEH

TAF KSBN 032320Z 0400/0424 34007KT P6SM BKN040 FM040600 36005KT P6SM BKN020 FM041400 34011KT P6SM SCT040